createdAt,value
2018-02-10T00:00:24.738Z,1009.48
2018-02-10T00:01:24.592Z,1009.52
2018-02-10T00:02:24.656Z,1009.56
2018-02-10T00:03:24.421Z,1009.58
2018-02-10T00:04:24.424Z,1009.59
2018-02-10T00:05:24.249Z,1009.59
2018-02-10T00:06:24.271Z,1009.60
2018-02-10T00:07:24.095Z,1009.59
2018-02-10T00:08:24.045Z,1009.58
2018-02-10T00:09:23.920Z,1009.61
2018-02-10T00:12:05.780Z,1009.60
2018-02-10T00:13:05.768Z,1009.61
2018-02-10T00:14:05.581Z,1009.65
2018-02-10T00:17:49.776Z,1009.60
2018-02-10T00:18:49.806Z,1009.58
2018-02-10T00:19:49.591Z,1009.60
2018-02-10T00:20:49.624Z,1009.54
2018-02-10T00:21:49.525Z,1009.60
2018-02-10T00:22:49.448Z,1009.59
2018-02-10T00:23:49.262Z,1009.59
2018-02-10T00:24:49.242Z,1009.54
2018-02-10T00:25:49.109Z,1009.58
2018-02-10T00:26:49.044Z,1009.64
2018-02-10T00:27:48.917Z,1009.54
2018-02-10T00:28:48.998Z,1009.51
2018-02-10T00:29:48.761Z,1009.58
2018-02-10T00:30:48.770Z,1009.58
2018-02-10T00:31:48.609Z,1009.53
2018-02-10T00:32:48.563Z,1009.54
2018-02-10T00:33:48.432Z,1009.54
2018-02-10T00:34:48.382Z,1009.56
2018-02-10T00:35:48.253Z,1009.56
2018-02-10T00:36:48.278Z,1009.59
2018-02-10T00:37:48.082Z,1009.58
2018-02-10T00:38:48.137Z,1009.55
2018-02-10T00:39:47.915Z,1009.59
2018-02-10T00:40:47.913Z,1009.53
2018-02-10T00:41:47.767Z,1009.60
2018-02-10T00:42:47.705Z,1009.64
2018-02-10T00:43:47.587Z,1009.62
2018-02-10T00:44:47.685Z,1009.64
2018-02-10T00:45:47.438Z,1009.61
2018-02-10T00:46:47.438Z,1009.63
2018-02-10T00:47:47.260Z,1009.63
2018-02-10T00:48:47.244Z,1009.64
2018-02-10T00:49:47.111Z,1009.66
2018-02-10T00:50:47.044Z,1009.64
2018-02-10T00:51:46.932Z,1009.62
2018-02-10T00:52:46.958Z,1009.65
2018-02-10T00:53:46.764Z,1009.66
2018-02-10T00:54:46.852Z,1009.67
2018-02-10T00:55:46.583Z,1009.56
2018-02-10T00:56:46.573Z,1009.60
2018-02-10T00:57:46.418Z,1009.67
2018-02-10T00:58:46.380Z,1009.67
2018-02-10T00:59:46.346Z,1009.66
2018-02-10T01:00:46.227Z,1009.67
2018-02-10T01:01:46.086Z,1009.72
2018-02-10T01:02:46.099Z,1009.72
2018-02-10T01:03:45.933Z,1009.71
2018-02-10T01:04:45.917Z,1009.70
2018-02-10T01:05:45.779Z,1009.71
2018-02-10T01:06:45.714Z,1009.68
2018-02-10T01:07:45.580Z,1009.68
2018-02-10T01:08:45.624Z,1009.72
2018-02-10T01:09:45.412Z,1009.73
2018-02-10T01:10:45.466Z,1009.69
2018-02-10T01:11:46.097Z,1009.73
2018-02-10T01:12:45.242Z,1009.78
2018-02-10T01:13:45.083Z,1009.73
2018-02-10T01:14:45.854Z,1009.71
2018-02-10T01:15:44.920Z,1009.69
2018-02-10T01:16:44.925Z,1009.71
2018-02-10T01:17:44.757Z,1009.71
2018-02-10T01:18:44.774Z,1009.69
2018-02-10T01:19:44.578Z,1009.76
2018-02-10T01:20:44.585Z,1009.73
2018-02-10T01:21:44.479Z,1009.72
2018-02-10T01:22:44.390Z,1009.72
2018-02-10T01:23:44.252Z,1009.78
2018-02-10T01:24:44.312Z,1009.75
2018-02-10T01:25:44.090Z,1009.82
2018-02-10T01:26:44.152Z,1009.84
2018-02-10T01:27:43.909Z,1009.85
2018-02-10T01:28:43.931Z,1009.85
2018-02-10T01:29:43.744Z,1009.84
2018-02-10T01:30:43.733Z,1009.86
2018-02-10T01:31:43.593Z,1009.87
2018-02-10T01:32:43.540Z,1009.83
2018-02-10T01:33:43.445Z,1009.84
2018-02-10T01:34:43.449Z,1009.82
2018-02-10T01:35:43.244Z,1009.82
2018-02-10T01:36:43.286Z,1009.82
2018-02-10T01:37:43.101Z,1009.79
2018-02-10T01:38:43.207Z,1009.85
2018-02-10T01:39:42.914Z,1009.78
2018-02-10T01:40:42.863Z,1009.80
2018-02-10T01:41:42.854Z,1009.80
2018-02-10T01:42:42.778Z,1009.80
2018-02-10T01:43:42.611Z,1009.80
2018-02-10T01:44:42.623Z,1009.81
2018-02-10T01:45:42.413Z,1009.79
2018-02-10T01:46:42.394Z,1009.80
2018-02-10T01:47:42.240Z,1009.81
2018-02-10T01:48:42.248Z,1009.78
2018-02-10T01:49:42.096Z,1009.83
2018-02-10T01:50:42.115Z,1009.79
2018-02-10T01:51:41.913Z,1009.77
2018-02-10T01:52:41.920Z,1009.77
2018-02-10T01:53:41.772Z,1009.77
2018-02-10T01:54:41.731Z,1009.75
2018-02-10T01:55:41.572Z,1009.77
2018-02-10T01:56:41.538Z,1009.76
2018-02-10T01:57:41.411Z,1009.82
2018-02-10T01:58:41.489Z,1009.79
2018-02-10T01:59:41.259Z,1009.78
2018-02-10T02:00:41.254Z,1009.83
2018-02-10T02:01:41.080Z,1009.80
2018-02-10T02:02:41.070Z,1009.79
2018-02-10T02:03:40.906Z,1009.81
2018-02-10T02:04:40.905Z,1009.76
2018-02-10T02:05:40.750Z,1009.81
2018-02-10T02:06:40.795Z,1009.80
2018-02-10T02:07:40.586Z,1009.78
2018-02-10T02:08:40.599Z,1009.78
2018-02-10T02:09:40.422Z,1009.80
2018-02-10T02:10:40.447Z,1009.75
2018-02-10T02:11:40.331Z,1009.76
2018-02-10T02:12:40.211Z,1009.76
2018-02-10T02:13:40.082Z,1009.79
2018-02-10T02:14:40.135Z,1009.76
2018-02-10T02:15:39.934Z,1009.77
2018-02-10T02:16:39.935Z,1009.79
2018-02-10T02:17:39.746Z,1009.71
2018-02-10T02:18:39.745Z,1009.76
2018-02-10T02:19:39.582Z,1009.75
2018-02-10T02:20:39.576Z,1009.80
2018-02-10T02:21:39.421Z,1009.83
2018-02-10T02:22:39.463Z,1009.80
2018-02-10T02:23:39.237Z,1009.85
2018-02-10T02:24:39.280Z,1009.85
2018-02-10T02:25:39.087Z,1009.77
2018-02-10T02:26:39.128Z,1009.81
2018-02-10T02:27:38.914Z,1009.79
2018-02-10T02:28:38.876Z,1009.82
2018-02-10T02:29:38.738Z,1009.88
2018-02-10T02:30:38.721Z,1009.86
2018-02-10T02:31:38.615Z,1009.91
2018-02-10T02:32:38.599Z,1009.89
2018-02-10T02:33:38.412Z,1009.93
2018-02-10T02:34:38.543Z,1009.93
2018-02-10T02:35:38.240Z,1009.91
2018-02-10T02:36:38.216Z,1009.94
2018-02-10T02:37:38.090Z,1009.94
2018-02-10T02:38:38.027Z,1009.90
2018-02-10T02:39:37.906Z,1009.92
2018-02-10T02:40:37.937Z,1009.88
2018-02-10T02:41:37.742Z,1009.88
2018-02-10T02:42:37.800Z,1009.89
2018-02-10T02:43:37.567Z,1009.86
2018-02-10T02:44:37.552Z,1009.86
2018-02-10T02:45:37.403Z,1009.82
2018-02-10T02:46:37.402Z,1009.82
2018-02-10T02:47:37.259Z,1009.82
2018-02-10T02:48:37.273Z,1009.81
2018-02-10T02:49:37.077Z,1009.76
2018-02-10T02:50:37.088Z,1009.85
2018-02-10T02:51:36.905Z,1009.83
2018-02-10T02:52:36.924Z,1009.88
2018-02-10T02:53:36.737Z,1009.88
2018-02-10T02:54:36.695Z,1009.90
2018-02-10T02:55:36.569Z,1009.85
2018-02-10T02:56:36.613Z,1009.90
2018-02-10T02:57:36.406Z,1009.88
2018-02-10T02:58:36.462Z,1009.86
2018-02-10T02:59:36.238Z,1009.84
2018-02-10T03:00:36.233Z,1009.90
2018-02-10T03:01:36.071Z,1009.92
2018-02-10T03:02:36.036Z,1009.97
2018-02-10T03:03:35.915Z,1009.92
2018-02-10T03:04:35.949Z,1009.96
2018-02-10T03:05:35.732Z,1009.98
2018-02-10T03:06:35.754Z,1009.97
2018-02-10T03:07:35.586Z,1009.98
2018-02-10T03:08:35.592Z,1010.00
2018-02-10T03:09:35.399Z,1010.04
2018-02-10T03:10:35.374Z,1010.02
2018-02-10T03:11:35.236Z,1010.05
2018-02-10T03:12:35.289Z,1010.01
2018-02-10T03:13:35.123Z,1010.03
2018-02-10T03:14:35.107Z,1010.02
2018-02-10T03:15:34.904Z,1010.06
2018-02-10T03:16:34.900Z,1010.06
2018-02-10T03:17:34.765Z,1010.05
2018-02-10T03:18:34.710Z,1010.08
2018-02-10T03:19:34.593Z,1010.07
2018-02-10T03:20:34.522Z,1010.15
2018-02-10T03:21:34.411Z,1010.17
2018-02-10T03:22:34.421Z,1010.18
2018-02-10T03:23:34.236Z,1010.23
2018-02-10T03:24:34.362Z,1010.20
2018-02-10T03:25:34.066Z,1010.20
2018-02-10T03:26:34.042Z,1010.27
2018-02-10T03:27:33.905Z,1010.22
2018-02-10T03:28:33.847Z,1010.20
2018-02-10T03:29:33.744Z,1010.26
2018-02-10T03:30:33.801Z,1010.23
2018-02-10T03:31:33.574Z,1010.23
2018-02-10T03:32:33.576Z,1010.26
2018-02-10T03:33:33.405Z,1010.21
2018-02-10T03:34:33.383Z,1010.27
2018-02-10T03:35:33.262Z,1010.29
2018-02-10T03:36:33.183Z,1010.23
2018-02-10T03:37:33.167Z,1010.25
2018-02-10T03:38:33.105Z,1010.21
2018-02-10T03:39:32.903Z,1010.22
2018-02-10T03:40:33.843Z,1010.23
2018-02-10T03:41:32.756Z,1010.18
2018-02-10T03:42:32.706Z,1010.20
2018-02-10T03:43:32.568Z,1010.19
2018-02-10T03:44:32.518Z,1010.21
2018-02-10T03:45:32.407Z,1010.20
2018-02-10T03:46:32.359Z,1010.25
2018-02-10T03:47:32.242Z,1010.24
2018-02-10T03:48:32.342Z,1010.26
2018-02-10T03:49:32.100Z,1010.29
2018-02-10T03:50:32.560Z,1010.33
2018-02-10T03:51:31.953Z,1010.38
2018-02-10T03:52:31.867Z,1010.35
2018-02-10T03:53:31.777Z,1010.39
2018-02-10T03:54:31.771Z,1010.35
2018-02-10T03:55:31.583Z,1010.39
2018-02-10T03:56:31.536Z,1010.42
2018-02-10T03:57:31.525Z,1010.39
2018-02-10T03:58:31.394Z,1010.42
2018-02-10T03:59:31.252Z,1010.46
2018-02-10T04:00:31.305Z,1010.39
2018-02-10T04:01:31.094Z,1010.45
2018-02-10T04:02:31.107Z,1010.47
2018-02-10T04:03:30.920Z,1010.51
2018-02-10T04:04:30.916Z,1010.52
2018-02-10T04:05:30.747Z,1010.51
2018-02-10T04:06:30.763Z,1010.55
2018-02-10T04:07:30.610Z,1010.52
2018-02-10T04:08:30.634Z,1010.50
2018-02-10T04:09:30.412Z,1010.48
2018-02-10T04:10:30.437Z,1010.46
2018-02-10T04:11:30.268Z,1010.50
2018-02-10T04:12:30.282Z,1010.52
2018-02-10T04:13:30.084Z,1010.51
2018-02-10T04:14:30.051Z,1010.56
2018-02-10T04:15:29.918Z,1010.55
2018-02-10T04:16:29.969Z,1010.52
2018-02-10T04:17:29.770Z,1010.55
2018-02-10T04:18:29.813Z,1010.58
2018-02-10T04:19:29.588Z,1010.53
2018-02-10T04:20:29.579Z,1010.57
2018-02-10T04:21:29.428Z,1010.59
2018-02-10T04:22:29.423Z,1010.58
2018-02-10T04:23:29.256Z,1010.58
2018-02-10T04:24:29.302Z,1010.57
2018-02-10T04:25:29.089Z,1010.61
2018-02-10T04:26:29.107Z,1010.57
2018-02-10T04:27:30.017Z,1010.54
2018-02-10T04:28:28.950Z,1010.56
2018-02-10T04:29:28.764Z,1010.55
2018-02-10T04:30:28.787Z,1010.56
2018-02-10T04:31:28.598Z,1010.57
2018-02-10T04:32:28.635Z,1010.58
2018-02-10T04:33:28.443Z,1010.59
2018-02-10T04:34:28.453Z,1010.59
2018-02-10T04:35:28.271Z,1010.61
2018-02-10T04:36:28.259Z,1010.58
2018-02-10T04:37:28.098Z,1010.61
2018-02-10T04:38:28.108Z,1010.63
2018-02-10T04:39:27.932Z,1010.64
2018-02-10T04:42:09.795Z,1010.63
2018-02-10T04:43:09.868Z,1010.64
2018-02-10T04:44:09.607Z,1010.65
2018-02-10T04:45:09.574Z,1010.63
2018-02-10T04:46:09.449Z,1010.69
2018-02-10T04:47:09.481Z,1010.65
2018-02-10T04:48:09.312Z,1010.69
2018-02-10T04:49:09.336Z,1010.65
2018-02-10T04:50:09.112Z,1010.70
2018-02-10T04:51:09.118Z,1010.71
2018-02-10T04:52:08.957Z,1010.70
2018-02-10T04:53:08.944Z,1010.73
2018-02-10T04:54:08.801Z,1010.73
2018-02-10T04:55:08.855Z,1010.75
2018-02-10T04:56:08.617Z,1010.73
2018-02-10T04:57:08.629Z,1010.74
2018-02-10T04:58:08.496Z,1010.77
2018-02-10T04:59:08.443Z,1010.75
2018-02-10T05:00:08.306Z,1010.75
2018-02-10T05:01:08.256Z,1010.80
2018-02-10T05:02:08.123Z,1010.78
2018-02-10T05:03:08.151Z,1010.79
2018-02-10T05:04:07.963Z,1010.76
2018-02-10T05:05:07.972Z,1010.76
2018-02-10T05:06:07.808Z,1010.74
2018-02-10T05:07:07.775Z,1010.73
2018-02-10T05:08:07.645Z,1010.71
2018-02-10T05:09:07.589Z,1010.78
2018-02-10T05:10:07.461Z,1010.69
2018-02-10T05:11:07.558Z,1010.75
2018-02-10T05:12:07.318Z,1010.78
2018-02-10T05:13:07.302Z,1010.84
2018-02-10T05:14:07.143Z,1010.80
2018-02-10T05:15:07.107Z,1010.84
2018-02-10T05:16:06.995Z,1010.76
2018-02-10T05:17:06.921Z,1010.84
2018-02-10T05:18:06.801Z,1010.82
2018-02-10T05:19:06.824Z,1010.78
2018-02-10T05:20:06.630Z,1010.80
2018-02-10T05:21:06.688Z,1010.83
2018-02-10T05:22:06.462Z,1010.81
2018-02-10T05:23:06.487Z,1010.79
2018-02-10T05:24:06.448Z,1010.81
2018-02-10T05:25:06.247Z,1010.78
2018-02-10T05:26:06.146Z,1010.78
2018-02-10T05:27:06.240Z,1010.78
2018-02-10T05:28:05.971Z,1010.72
2018-02-10T05:29:06.003Z,1010.77
2018-02-10T05:30:05.804Z,1010.77
2018-02-10T05:31:05.778Z,1010.78
2018-02-10T05:32:05.658Z,1010.76
2018-02-10T05:33:05.599Z,1010.74
2018-02-10T05:34:05.469Z,1010.78
2018-02-10T05:35:05.500Z,1010.79
2018-02-10T05:36:05.305Z,1010.74
2018-02-10T05:37:05.306Z,1010.76
2018-02-10T05:38:05.162Z,1010.74
2018-02-10T05:39:05.123Z,1010.75
2018-02-10T05:40:05.001Z,1010.72
2018-02-10T05:41:04.923Z,1010.69
2018-02-10T05:42:04.807Z,1010.70
2018-02-10T05:43:04.864Z,1010.66
2018-02-10T05:44:04.659Z,1010.68
2018-02-10T05:45:04.679Z,1010.71
2018-02-10T05:46:04.485Z,1010.68
2018-02-10T05:47:04.465Z,1010.70
2018-02-10T05:48:04.320Z,1010.67
2018-02-10T05:49:04.260Z,1010.77
2018-02-10T05:50:04.161Z,1010.77
2018-02-10T05:51:04.165Z,1010.79
2018-02-10T05:52:03.983Z,1010.79
2018-02-10T05:53:03.986Z,1010.86
2018-02-10T05:54:03.837Z,1010.85
2018-02-10T05:55:03.786Z,1010.82
2018-02-10T05:56:03.679Z,1010.84
2018-02-10T05:57:03.609Z,1010.80
2018-02-10T05:58:03.493Z,1010.82
2018-02-10T05:59:03.537Z,1010.82
2018-02-10T06:00:03.319Z,1010.84
2018-02-10T06:01:03.347Z,1010.84
2018-02-10T06:02:03.155Z,1010.90
2018-02-10T06:03:03.120Z,1010.84
2018-02-10T06:04:03.032Z,1010.86
2018-02-10T06:05:02.930Z,1010.84
2018-02-10T06:06:02.832Z,1010.83
2018-02-10T06:07:02.906Z,1010.79
2018-02-10T06:08:02.668Z,1010.78
2018-02-10T06:09:02.652Z,1010.77
2018-02-10T06:10:02.495Z,1010.77
2018-02-10T06:11:02.459Z,1010.76
2018-02-10T06:12:02.353Z,1010.74
2018-02-10T06:13:02.373Z,1010.72
2018-02-10T06:14:02.163Z,1010.71
2018-02-10T06:15:02.177Z,1010.69
2018-02-10T06:16:01.991Z,1010.75
2018-02-10T06:17:02.068Z,1010.78
2018-02-10T06:18:01.829Z,1010.69
2018-02-10T06:19:01.800Z,1010.71
2018-02-10T06:20:01.673Z,1010.74
2018-02-10T06:21:01.705Z,1010.70
2018-02-10T06:22:01.542Z,1010.68
2018-02-10T06:23:01.512Z,1010.68
2018-02-10T06:24:01.329Z,1010.71
2018-02-10T06:25:01.334Z,1010.74
2018-02-10T06:26:01.167Z,1010.77
2018-02-10T06:27:01.131Z,1010.70
2018-02-10T06:28:01.026Z,1010.74
2018-02-10T06:29:01.042Z,1010.70
2018-02-10T06:30:00.840Z,1010.68
2018-02-10T06:31:00.857Z,1010.66
2018-02-10T06:32:00.668Z,1010.69
2018-02-10T06:33:00.692Z,1010.70
2018-02-10T06:34:00.514Z,1010.69
2018-02-10T06:35:00.501Z,1010.72
2018-02-10T06:36:00.339Z,1010.69
2018-02-10T06:37:00.394Z,1010.67
2018-02-10T06:38:00.211Z,1010.67
2018-02-10T06:39:00.191Z,1010.68
2018-02-10T06:40:00.009Z,1010.65
2018-02-10T06:40:59.995Z,1010.65
2018-02-10T06:41:59.869Z,1010.63
2018-02-10T06:42:59.822Z,1010.65
2018-02-10T06:43:59.701Z,1010.60
2018-02-10T06:44:59.642Z,1010.63
2018-02-10T06:45:59.527Z,1010.60
2018-02-10T06:46:59.522Z,1010.67
2018-02-10T06:47:59.348Z,1010.67
2018-02-10T06:48:59.362Z,1010.73
2018-02-10T06:49:59.184Z,1010.77
2018-02-10T06:50:59.148Z,1010.76
2018-02-10T06:51:59.018Z,1010.73
2018-02-10T06:52:59.051Z,1010.77
2018-02-10T06:53:58.871Z,1010.76
2018-02-10T06:54:58.861Z,1010.75
2018-02-10T06:55:58.708Z,1010.79
2018-02-10T06:56:58.666Z,1010.83
2018-02-10T06:57:58.529Z,1010.86
2018-02-10T06:58:58.507Z,1010.85
2018-02-10T06:59:58.363Z,1010.84
2018-02-10T07:00:58.408Z,1010.81
2018-02-10T07:01:58.187Z,1010.84
2018-02-10T07:02:58.194Z,1010.82
2018-02-10T07:03:58.036Z,1010.85
2018-02-10T07:04:58.057Z,1010.88
2018-02-10T07:05:57.846Z,1010.88
2018-02-10T07:08:39.802Z,1010.80
2018-02-10T07:09:39.850Z,1010.74
2018-02-10T07:10:39.631Z,1010.80
2018-02-10T07:11:39.626Z,1010.80
2018-02-10T07:12:39.467Z,1010.85
2018-02-10T07:13:39.536Z,1010.94
2018-02-10T07:14:39.328Z,1010.95
2018-02-10T07:15:39.335Z,1010.98
2018-02-10T07:16:39.146Z,1011.04
2018-02-10T07:17:39.141Z,1011.05
2018-02-10T07:18:38.956Z,1011.07
2018-02-10T07:19:38.946Z,1011.11
2018-02-10T07:20:38.808Z,1011.14
2018-02-10T07:21:38.804Z,1011.14
2018-02-10T07:22:38.634Z,1011.13
2018-02-10T07:23:38.675Z,1011.15
2018-02-10T07:24:38.487Z,1011.15
2018-02-10T07:25:38.478Z,1011.20
2018-02-10T07:26:38.320Z,1011.19
2018-02-10T07:27:38.289Z,1011.21
2018-02-10T07:28:38.131Z,1011.24
2018-02-10T07:29:38.098Z,1011.28
2018-02-10T07:30:37.982Z,1011.30
2018-02-10T07:31:37.944Z,1011.35
2018-02-10T07:32:37.808Z,1011.32
2018-02-10T07:33:37.828Z,1011.34
2018-02-10T07:34:37.649Z,1011.40
2018-02-10T07:35:37.626Z,1011.36
2018-02-10T07:36:37.488Z,1011.35
2018-02-10T07:37:37.431Z,1011.34
2018-02-10T07:38:37.326Z,1011.37
2018-02-10T07:39:37.346Z,1011.34
2018-02-10T07:40:37.154Z,1011.32
2018-02-10T07:41:37.189Z,1011.33
2018-02-10T07:42:36.974Z,1011.36
2018-02-10T07:43:36.962Z,1011.34
2018-02-10T07:44:36.811Z,1011.33
2018-02-10T07:45:36.773Z,1011.32
2018-02-10T07:46:36.950Z,1011.36
2018-02-10T07:47:36.682Z,1011.32
2018-02-10T07:48:36.479Z,1011.34
2018-02-10T07:49:36.491Z,1011.37
2018-02-10T07:50:36.318Z,1011.38
2018-02-10T07:51:36.328Z,1011.35
2018-02-10T07:52:36.153Z,1011.32
2018-02-10T07:53:36.168Z,1011.28
2018-02-10T07:54:35.982Z,1011.33
2018-02-10T07:55:36.017Z,1011.29
2018-02-10T07:56:35.828Z,1011.28
2018-02-10T07:57:35.821Z,1011.31
2018-02-10T07:58:35.676Z,1011.28
2018-02-10T07:59:35.633Z,1011.28
2018-02-10T08:00:35.482Z,1011.26
2018-02-10T08:01:35.441Z,1011.21
2018-02-10T08:02:35.341Z,1011.24
2018-02-10T08:03:35.362Z,1011.24
2018-02-10T08:04:35.161Z,1011.22
2018-02-10T08:05:35.197Z,1011.18
2018-02-10T08:06:34.990Z,1011.17
2018-02-10T08:07:35.015Z,1011.14
2018-02-10T08:08:34.828Z,1011.07
2018-02-10T08:09:34.780Z,1011.17
2018-02-10T08:10:34.685Z,1011.16
2018-02-10T08:11:34.685Z,1011.17
2018-02-10T08:12:34.502Z,1011.14
2018-02-10T08:13:34.494Z,1011.14
2018-02-10T08:14:34.336Z,1011.18
2018-02-10T08:15:34.304Z,1011.18
2018-02-10T08:16:34.190Z,1011.19
2018-02-10T08:17:34.078Z,1011.20
2018-02-10T08:18:34.027Z,1011.25
2018-02-10T08:19:33.921Z,1011.22
2018-02-10T08:20:33.824Z,1011.29
2018-02-10T08:21:33.762Z,1011.29
2018-02-10T08:22:33.660Z,1011.32
2018-02-10T08:23:33.602Z,1011.35
2018-02-10T08:24:33.525Z,1011.32
2018-02-10T08:25:33.447Z,1011.26
2018-02-10T08:26:33.481Z,1011.27
2018-02-10T08:27:33.255Z,1011.21
2018-02-10T08:28:33.171Z,1011.26
2018-02-10T08:29:33.111Z,1011.27
2018-02-10T08:30:33.022Z,1011.24
2018-02-10T08:31:33.014Z,1011.26
2018-02-10T08:32:32.834Z,1011.29
2018-02-10T08:33:32.769Z,1011.26
2018-02-10T08:34:32.671Z,1011.36
2018-02-10T08:35:32.617Z,1011.33
2018-02-10T08:36:32.498Z,1011.36
2018-02-10T08:37:32.434Z,1011.34
2018-02-10T08:38:32.342Z,1011.42
2018-02-10T08:39:32.261Z,1011.39
2018-02-10T08:40:32.189Z,1011.40
2018-02-10T08:41:32.112Z,1011.45
2018-02-10T08:42:32.031Z,1011.46
2018-02-10T08:43:31.940Z,1011.42
2018-02-10T08:44:31.845Z,1011.44
2018-02-10T08:45:31.800Z,1011.40
2018-02-10T08:46:31.686Z,1011.42
2018-02-10T08:47:31.645Z,1011.38
2018-02-10T08:48:31.505Z,1011.34
2018-02-10T08:49:31.437Z,1011.40
2018-02-10T08:50:31.345Z,1011.41
2018-02-10T08:51:31.294Z,1011.38
2018-02-10T08:52:31.189Z,1011.42
2018-02-10T08:53:31.127Z,1011.37
2018-02-10T08:54:31.154Z,1011.37
2018-02-10T08:55:30.938Z,1011.35
2018-02-10T08:56:30.853Z,1011.33
2018-02-10T08:57:30.795Z,1011.31
2018-02-10T08:58:30.680Z,1011.39
2018-02-10T08:59:30.717Z,1011.37
2018-02-10T09:00:30.510Z,1011.36
2018-02-10T09:01:30.474Z,1011.38
2018-02-10T09:02:30.370Z,1011.35
2018-02-10T09:03:30.272Z,1011.41
2018-02-10T09:04:30.191Z,1011.41
2018-02-10T09:05:30.122Z,1011.38
2018-02-10T09:06:30.025Z,1011.38
2018-02-10T09:07:29.970Z,1011.39
2018-02-10T09:08:29.856Z,1011.42
2018-02-10T09:09:29.803Z,1011.39
2018-02-10T09:10:29.684Z,1011.42
2018-02-10T09:11:29.612Z,1011.42
2018-02-10T09:12:29.539Z,1011.51
2018-02-10T09:13:29.471Z,1011.46
2018-02-10T09:14:29.373Z,1011.48
2018-02-10T09:15:29.278Z,1011.48
2018-02-10T09:16:29.194Z,1011.54
2018-02-10T09:17:29.315Z,1011.54
2018-02-10T09:18:29.025Z,1011.54
2018-02-10T09:19:28.950Z,1011.55
2018-02-10T09:20:28.860Z,1011.53
2018-02-10T09:21:28.797Z,1011.54
2018-02-10T09:22:28.705Z,1011.54
2018-02-10T09:23:28.650Z,1011.53
2018-02-10T09:24:28.527Z,1011.53
2018-02-10T09:25:28.455Z,1011.56
2018-02-10T09:26:28.458Z,1011.56
2018-02-10T09:27:28.280Z,1011.51
2018-02-10T09:28:28.621Z,1011.54
2018-02-10T09:29:28.141Z,1011.56
2018-02-10T09:30:28.039Z,1011.57
2018-02-10T09:31:28.065Z,1011.56
2018-02-10T09:32:27.927Z,1011.61
2018-02-10T09:33:27.810Z,1011.63
2018-02-10T09:34:27.720Z,1011.66
2018-02-10T09:35:27.639Z,1011.66
2018-02-10T09:36:27.528Z,1011.73
2018-02-10T09:37:27.465Z,1011.68
2018-02-10T09:38:27.399Z,1011.68
2018-02-10T09:39:27.321Z,1011.73
2018-02-10T09:40:27.233Z,1011.72
2018-02-10T09:41:27.147Z,1011.73
2018-02-10T09:42:27.037Z,1011.74
2018-02-10T09:43:26.993Z,1011.76
2018-02-10T09:44:26.887Z,1011.77
2018-02-10T09:45:26.796Z,1011.75
2018-02-10T09:46:26.730Z,1011.77
2018-02-10T09:47:26.628Z,1011.83
2018-02-10T09:48:26.549Z,1011.77
2018-02-10T09:49:26.485Z,1011.79
2018-02-10T09:50:26.414Z,1011.80
2018-02-10T09:51:26.304Z,1011.80
2018-02-10T09:52:26.204Z,1011.81
2018-02-10T09:53:26.146Z,1011.82
2018-02-10T09:54:26.042Z,1011.82
2018-02-10T09:55:25.972Z,1011.79
2018-02-10T09:56:25.936Z,1011.79
2018-02-10T09:57:25.820Z,1011.76
2018-02-10T09:58:25.735Z,1011.72
2018-02-10T09:59:25.635Z,1011.71
2018-02-10T10:00:25.562Z,1011.72
2018-02-10T10:01:25.491Z,1011.72
2018-02-10T10:02:25.381Z,1011.71
2018-02-10T10:03:25.323Z,1011.68
2018-02-10T10:04:25.219Z,1011.69
2018-02-10T10:05:25.191Z,1011.67
2018-02-10T10:06:25.054Z,1011.65
2018-02-10T10:07:24.983Z,1011.71
2018-02-10T10:08:24.893Z,1011.66
2018-02-10T10:09:24.823Z,1011.65
2018-02-10T10:10:24.820Z,1011.67
2018-02-10T10:11:24.633Z,1011.65
2018-02-10T10:12:24.588Z,1011.62
2018-02-10T10:13:24.469Z,1011.61
2018-02-10T10:14:24.457Z,1011.67
2018-02-10T10:15:24.301Z,1011.64
2018-02-10T10:16:24.284Z,1011.67
2018-02-10T10:17:24.147Z,1011.68
2018-02-10T10:18:24.073Z,1011.67
2018-02-10T10:19:23.987Z,1011.68
2018-02-10T10:20:23.921Z,1011.71
2018-02-10T10:21:23.825Z,1011.72
2018-02-10T10:22:23.993Z,1011.79
2018-02-10T10:23:23.645Z,1011.80
2018-02-10T10:24:23.580Z,1011.82
2018-02-10T10:25:23.479Z,1011.78
2018-02-10T10:26:23.441Z,1011.79
2018-02-10T10:27:23.322Z,1011.79
2018-02-10T10:28:23.313Z,1011.84
2018-02-10T10:29:23.163Z,1011.85
2018-02-10T10:30:23.083Z,1011.80
2018-02-10T10:31:23.004Z,1011.75
2018-02-10T10:32:22.987Z,1011.80
2018-02-10T10:33:22.832Z,1011.82
2018-02-10T10:34:22.742Z,1011.82
2018-02-10T10:35:22.653Z,1011.79
2018-02-10T10:36:22.587Z,1011.81
2018-02-10T10:37:22.505Z,1011.81
2018-02-10T10:38:22.436Z,1011.81
2018-02-10T10:39:22.383Z,1011.83
2018-02-10T10:40:22.251Z,1011.82
2018-02-10T10:41:22.174Z,1011.80
2018-02-10T10:42:22.116Z,1011.80
2018-02-10T10:43:22.015Z,1011.78
2018-02-10T10:44:22.067Z,1011.78
2018-02-10T10:45:21.845Z,1011.79
2018-02-10T10:46:21.758Z,1011.76
2018-02-10T10:47:21.670Z,1011.75
2018-02-10T10:48:21.634Z,1011.76
2018-02-10T10:49:21.507Z,1011.80
2018-02-10T10:50:21.487Z,1011.78
2018-02-10T10:51:21.334Z,1011.76
2018-02-10T10:52:21.277Z,1011.74
2018-02-10T10:53:21.299Z,1011.74
2018-02-10T10:54:21.126Z,1011.72
2018-02-10T10:55:21.161Z,1011.69
2018-02-10T10:56:20.981Z,1011.70
2018-02-10T10:57:21.071Z,1011.69
2018-02-10T10:58:20.786Z,1011.74
2018-02-10T10:59:20.689Z,1011.76
2018-02-10T11:00:20.606Z,1011.73
2018-02-10T11:01:20.548Z,1011.72
2018-02-10T11:02:20.461Z,1011.74
2018-02-10T11:03:20.357Z,1011.71
2018-02-10T11:04:20.365Z,1011.70
2018-02-10T11:05:20.197Z,1011.71
2018-02-10T11:06:20.120Z,1011.74
2018-02-10T11:07:20.030Z,1011.68
2018-02-10T11:08:19.957Z,1011.72
2018-02-10T11:09:19.877Z,1011.71
2018-02-10T11:10:19.796Z,1011.71
2018-02-10T11:11:19.708Z,1011.70
2018-02-10T11:12:19.656Z,1011.71
2018-02-10T11:13:19.541Z,1011.77
2018-02-10T11:14:19.476Z,1011.70
2018-02-10T11:15:19.372Z,1011.73
2018-02-10T11:16:19.290Z,1011.66
2018-02-10T11:17:19.211Z,1011.67
2018-02-10T11:18:19.128Z,1011.72
2018-02-10T11:19:19.031Z,1011.71
2018-02-10T11:20:19.043Z,1011.72
2018-02-10T11:21:18.868Z,1011.73
2018-02-10T11:22:18.804Z,1011.70
2018-02-10T11:23:18.718Z,1011.68
2018-02-10T11:24:18.640Z,1011.71
2018-02-10T11:25:18.575Z,1011.69
2018-02-10T11:26:18.463Z,1011.72
2018-02-10T11:27:18.393Z,1011.74
2018-02-10T11:28:18.309Z,1011.73
2018-02-10T11:29:18.218Z,1011.73
2018-02-10T11:30:18.159Z,1011.71
2018-02-10T11:31:18.060Z,1011.70
2018-02-10T11:32:18.078Z,1011.70
2018-02-10T11:33:17.883Z,1011.68
2018-02-10T11:34:17.810Z,1011.68
2018-02-10T11:35:17.728Z,1011.68
2018-02-10T11:36:17.662Z,1011.69
2018-02-10T11:37:18.347Z,1011.67
2018-02-10T11:38:17.494Z,1011.67
2018-02-10T11:39:17.391Z,1011.73
2018-02-10T11:40:17.323Z,1011.71
2018-02-10T11:41:17.250Z,1011.69
2018-02-10T11:42:17.154Z,1011.68
2018-02-10T11:43:17.071Z,1011.66
2018-02-10T11:44:16.999Z,1011.69
2018-02-10T11:45:16.910Z,1011.67
2018-02-10T11:46:16.863Z,1011.68
2018-02-10T11:47:16.768Z,1011.65
2018-02-10T11:49:58.821Z,1011.62
2018-02-10T11:50:58.752Z,1011.60
2018-02-10T11:51:58.672Z,1011.60
2018-02-10T11:52:58.578Z,1011.59
2018-02-10T11:53:58.490Z,1011.59
2018-02-10T11:54:58.422Z,1011.55
2018-02-10T11:55:58.371Z,1011.50
2018-02-10T11:56:58.315Z,1011.51
2018-02-10T11:57:58.171Z,1011.54
2018-02-10T11:58:58.094Z,1011.51
2018-02-10T11:59:57.998Z,1011.51
2018-02-10T12:00:57.931Z,1011.58
2018-02-10T12:01:57.849Z,1011.57
2018-02-10T12:02:57.784Z,1011.54
2018-02-10T12:03:57.675Z,1011.57
2018-02-10T12:04:57.612Z,1011.56
2018-02-10T12:05:57.507Z,1011.55
2018-02-10T12:06:57.436Z,1011.52
2018-02-10T12:07:57.368Z,1011.52
2018-02-10T12:08:57.297Z,1011.52
2018-02-10T12:09:57.175Z,1011.51
2018-02-10T12:10:57.156Z,1011.55
2018-02-10T12:11:57.018Z,1011.57
2018-02-10T12:12:56.950Z,1011.50
2018-02-10T12:13:56.870Z,1011.48